createdAt,value
2018-06-22T00:00:07.232Z,24.32
2018-06-22T00:00:38.894Z,24.33
2018-06-22T00:01:10.482Z,24.32
2018-06-22T00:01:42.076Z,24.32
2018-06-22T00:02:13.661Z,24.32
2018-06-22T00:02:45.266Z,24.32
2018-06-22T00:03:16.872Z,24.32
2018-06-22T00:03:48.457Z,24.32
2018-06-22T00:04:20.070Z,24.32
2018-06-22T00:04:51.658Z,24.33
2018-06-22T00:05:23.305Z,24.33
2018-06-22T00:05:54.935Z,24.33
2018-06-22T00:06:26.514Z,24.33
2018-06-22T00:06:58.122Z,24.33
2018-06-22T00:07:29.733Z,24.31
2018-06-22T00:08:01.403Z,24.33
2018-06-22T00:08:32.985Z,24.30
2018-06-22T00:09:04.560Z,24.32
2018-06-22T00:09:36.141Z,24.32
2018-06-22T00:10:07.746Z,24.32
2018-06-22T00:10:39.334Z,24.31
2018-06-22T00:11:10.937Z,24.31
2018-06-22T00:11:42.546Z,24.32
2018-06-22T00:12:14.157Z,24.31
2018-06-22T00:12:45.737Z,24.32
2018-06-22T00:13:17.367Z,24.32
2018-06-22T00:13:48.960Z,24.32
2018-06-22T00:14:20.569Z,24.32
2018-06-22T00:14:52.157Z,24.32
2018-06-22T00:15:23.724Z,24.33
2018-06-22T00:15:55.306Z,24.32
2018-06-22T00:16:26.885Z,24.32
2018-06-22T00:16:58.469Z,24.32
2018-06-22T00:17:30.051Z,24.32
2018-06-22T00:18:01.653Z,24.32
2018-06-22T00:18:33.266Z,24.32
2018-06-22T00:19:04.862Z,24.31
2018-06-22T00:19:36.441Z,24.31
2018-06-22T00:20:08.026Z,24.30
2018-06-22T00:20:39.629Z,24.33
2018-06-22T00:21:11.242Z,24.34
2018-06-22T00:21:42.839Z,24.34
2018-06-22T00:22:14.445Z,24.35
2018-06-22T00:22:46.074Z,24.35
2018-06-22T00:23:17.660Z,24.35
2018-06-22T00:23:49.251Z,24.35
2018-06-22T00:24:20.860Z,24.35
2018-06-22T00:24:52.441Z,24.34
2018-06-22T00:25:24.049Z,24.34
2018-06-22T00:25:55.652Z,24.34
2018-06-22T00:26:27.224Z,24.34
2018-06-22T00:26:58.796Z,24.34
2018-06-22T00:27:30.431Z,24.34
2018-06-22T00:28:02.045Z,24.33
2018-06-22T00:28:33.649Z,24.33
2018-06-22T00:29:05.244Z,24.33
2018-06-22T00:29:36.850Z,24.33
2018-06-22T00:30:08.445Z,24.33
2018-06-22T00:30:40.034Z,24.33
2018-06-22T00:31:11.617Z,24.33
2018-06-22T00:31:43.221Z,24.33
2018-06-22T00:32:14.792Z,24.33
2018-06-22T00:32:46.437Z,24.32
2018-06-22T00:33:18.022Z,24.32
2018-06-22T00:33:49.602Z,24.33
2018-06-22T00:34:21.235Z,24.32
2018-06-22T00:34:52.849Z,24.33
2018-06-22T00:35:24.457Z,24.32
2018-06-22T00:35:56.070Z,24.32
2018-06-22T00:36:27.677Z,24.33
2018-06-22T00:36:59.262Z,24.33
2018-06-22T00:37:30.872Z,24.33
2018-06-22T00:38:02.482Z,24.33
2018-06-22T00:38:34.080Z,24.33
2018-06-22T00:39:05.656Z,24.33
2018-06-22T00:39:37.238Z,24.32
2018-06-22T00:40:08.878Z,24.32
2018-06-22T00:40:40.486Z,24.32
2018-06-22T00:41:12.101Z,24.32
2018-06-22T00:41:43.753Z,24.32
2018-06-22T00:42:15.341Z,24.31
2018-06-22T00:42:46.926Z,24.31
2018-06-22T00:43:18.506Z,24.31
2018-06-22T00:43:50.090Z,24.31
2018-06-22T00:44:21.664Z,24.32
2018-06-22T00:44:53.255Z,24.31
2018-06-22T00:45:24.856Z,24.31
2018-06-22T00:45:56.437Z,24.32
2018-06-22T00:46:28.012Z,24.32
2018-06-22T00:46:59.652Z,24.32
2018-06-22T00:47:31.237Z,24.31
2018-06-22T00:48:02.822Z,24.32
2018-06-22T00:48:34.424Z,24.32
2018-06-22T00:49:06.014Z,24.31
2018-06-22T00:49:37.608Z,24.31
2018-06-22T00:50:09.194Z,24.31
2018-06-22T00:50:40.774Z,24.31
2018-06-22T00:51:12.368Z,24.31
2018-06-22T00:51:43.948Z,24.31
2018-06-22T00:52:15.560Z,24.30
2018-06-22T00:52:47.166Z,24.30
2018-06-22T00:53:18.768Z,24.30
2018-06-22T00:53:50.363Z,24.31
2018-06-22T00:54:21.973Z,24.29
2018-06-22T00:54:53.580Z,24.31
2018-06-22T00:55:25.152Z,24.31
2018-06-22T00:55:56.754Z,24.31
2018-06-22T00:56:28.391Z,24.31
2018-06-22T00:57:00.005Z,24.31
2018-06-22T00:57:31.657Z,24.31
2018-06-22T00:58:03.242Z,24.29
2018-06-22T00:58:34.831Z,24.30
2018-06-22T00:59:06.441Z,24.30
2018-06-22T00:59:38.049Z,24.30
2018-06-22T01:00:09.619Z,24.30
2018-06-22T01:00:41.196Z,24.30
2018-06-22T01:01:12.777Z,24.31
2018-06-22T01:01:44.381Z,24.30
2018-06-22T01:02:15.996Z,24.32
2018-06-22T01:02:47.574Z,24.32
2018-06-22T01:03:19.181Z,24.31
2018-06-22T01:03:50.790Z,24.32
2018-06-22T01:04:22.373Z,24.32
2018-06-22T01:04:53.944Z,24.31
2018-06-22T01:05:25.516Z,24.32
2018-06-22T01:05:57.141Z,24.32
2018-06-22T01:06:28.741Z,24.32
2018-06-22T01:07:00.389Z,24.31
2018-06-22T01:07:31.983Z,24.33
2018-06-22T01:08:03.589Z,24.33
2018-06-22T01:08:35.197Z,24.33
2018-06-22T01:09:06.786Z,24.33
2018-06-22T01:09:38.369Z,24.35
2018-06-22T01:10:09.953Z,24.35
2018-06-22T01:10:41.526Z,24.37
2018-06-22T01:11:13.169Z,24.37
2018-06-22T01:11:44.857Z,24.37
2018-06-22T01:12:16.501Z,24.36
2018-06-22T01:12:48.105Z,24.37
2018-06-22T01:13:19.699Z,24.36
2018-06-22T01:13:51.338Z,24.35
2018-06-22T01:14:22.908Z,24.35
2018-06-22T01:14:54.479Z,24.35
2018-06-22T01:15:26.081Z,24.35
2018-06-22T01:15:57.698Z,24.35
2018-06-22T01:16:29.276Z,24.34
2018-06-22T01:17:00.877Z,24.35
2018-06-22T01:17:32.465Z,24.35
2018-06-22T01:18:04.060Z,24.35
2018-06-22T01:18:35.745Z,24.34
2018-06-22T01:19:07.393Z,24.34
2018-06-22T01:19:38.989Z,24.34
2018-06-22T01:20:10.574Z,24.34
2018-06-22T01:20:42.158Z,24.33
2018-06-22T01:21:13.752Z,24.33
2018-06-22T01:21:45.323Z,24.33
2018-06-22T01:22:16.942Z,24.33
2018-06-22T01:22:48.566Z,24.33
2018-06-22T01:23:20.162Z,24.32
2018-06-22T01:23:51.750Z,24.33
2018-06-22T01:24:23.376Z,24.32
2018-06-22T01:24:54.982Z,24.32
2018-06-22T01:25:26.566Z,24.33
2018-06-22T01:25:58.146Z,24.34
2018-06-22T01:26:29.730Z,24.36
2018-06-22T01:27:01.338Z,24.38
2018-06-22T01:27:32.954Z,24.38
2018-06-22T01:28:04.538Z,24.36
2018-06-22T01:28:36.165Z,24.36
2018-06-22T01:29:07.745Z,24.41
2018-06-22T01:29:39.348Z,24.47
2018-06-22T01:30:10.926Z,24.45
2018-06-22T01:30:42.506Z,24.41
2018-06-22T01:31:14.076Z,24.36
2018-06-22T01:31:45.662Z,24.35
2018-06-22T01:32:17.246Z,24.33
2018-06-22T01:32:48.847Z,24.31
2018-06-22T01:33:20.433Z,24.29
2018-06-22T01:33:52.078Z,24.30
2018-06-22T01:34:23.765Z,24.29
2018-06-22T01:34:55.378Z,24.28
2018-06-22T01:35:26.976Z,24.27
2018-06-22T01:35:58.581Z,24.27
2018-06-22T01:36:30.198Z,24.25
2018-06-22T01:37:01.797Z,24.26
2018-06-22T01:37:33.422Z,24.25
2018-06-22T01:38:05.009Z,24.23
2018-06-22T01:38:36.613Z,24.24
2018-06-22T01:39:08.242Z,24.24
2018-06-22T01:39:39.844Z,24.23
2018-06-22T01:40:11.433Z,24.24
2018-06-22T01:40:43.004Z,24.24
2018-06-22T01:41:14.629Z,24.24
2018-06-22T01:41:46.228Z,24.24
2018-06-22T01:42:17.837Z,24.24
2018-06-22T01:42:49.446Z,24.23
2018-06-22T01:43:21.097Z,24.23
2018-06-22T01:43:52.686Z,24.23
2018-06-22T01:44:24.357Z,24.23
2018-06-22T01:44:55.937Z,24.23
2018-06-22T01:45:27.546Z,24.21
2018-06-22T01:45:59.157Z,24.23
2018-06-22T01:46:30.765Z,24.24
2018-06-22T01:47:02.360Z,24.24
2018-06-22T01:47:33.965Z,24.22
2018-06-22T01:48:05.618Z,24.22
2018-06-22T01:48:37.224Z,24.22
2018-06-22T01:49:08.861Z,24.22
2018-06-22T01:49:40.473Z,24.20
2018-06-22T01:50:12.067Z,24.22
2018-06-22T01:50:43.674Z,24.21
2018-06-22T01:51:15.281Z,24.20
2018-06-22T01:51:46.893Z,24.20
2018-06-22T01:52:18.478Z,24.20
2018-06-22T01:52:50.081Z,24.20
2018-06-22T01:53:22.723Z,24.19
2018-06-22T01:53:54.313Z,24.19
2018-06-22T01:54:25.917Z,24.19
2018-06-22T01:54:57.510Z,24.17
2018-06-22T01:55:29.081Z,24.17
2018-06-22T01:56:00.689Z,24.17
2018-06-22T01:56:32.264Z,24.17
2018-06-22T01:57:03.914Z,24.17
2018-06-22T01:57:35.512Z,24.16
2018-06-22T01:58:07.169Z,24.15
2018-06-22T01:58:38.763Z,24.16
2018-06-22T01:59:10.381Z,24.17
2018-06-22T01:59:41.951Z,24.16
2018-06-22T02:00:13.543Z,24.17
2018-06-22T02:00:45.137Z,24.16
2018-06-22T02:01:16.733Z,24.17
2018-06-22T02:01:48.309Z,24.17
2018-06-22T02:02:19.963Z,24.17
2018-06-22T02:02:51.541Z,24.16
2018-06-22T02:03:23.190Z,24.16
2018-06-22T02:03:54.781Z,24.16
2018-06-22T02:04:26.376Z,24.17
2018-06-22T02:04:57.987Z,24.17
2018-06-22T02:05:29.596Z,24.17
2018-06-22T02:06:01.296Z,24.17
2018-06-22T02:06:32.882Z,24.17
2018-06-22T02:07:04.465Z,24.17
2018-06-22T02:07:36.060Z,24.17
2018-06-22T02:08:07.627Z,24.16
2018-06-22T02:08:39.425Z,24.16
2018-06-22T02:09:10.996Z,24.16
2018-06-22T02:09:42.601Z,24.15
2018-06-22T02:10:14.195Z,24.15
2018-06-22T02:10:45.811Z,24.15
2018-06-22T02:11:17.407Z,24.14
2018-06-22T02:11:49.012Z,24.14
2018-06-22T02:12:20.617Z,24.14
2018-06-22T02:12:52.206Z,24.15
2018-06-22T02:13:23.808Z,24.15
2018-06-22T02:13:55.446Z,24.15
2018-06-22T02:14:27.020Z,24.14
2018-06-22T02:14:58.621Z,24.15
2018-06-22T02:15:30.230Z,24.14
2018-06-22T02:16:01.836Z,24.14
2018-06-22T02:16:33.432Z,24.15
2018-06-22T02:17:05.027Z,24.15
2018-06-22T02:17:36.596Z,24.16
2018-06-22T02:18:08.187Z,24.16
2018-06-22T02:18:39.769Z,24.15
2018-06-22T02:19:11.413Z,24.15
2018-06-22T02:19:42.987Z,24.14
2018-06-22T02:20:14.589Z,24.16
2018-06-22T02:20:46.178Z,24.16
2018-06-22T02:21:17.757Z,24.16
2018-06-22T02:21:49.362Z,24.15
2018-06-22T02:22:20.988Z,24.15
2018-06-22T02:22:52.565Z,24.15
2018-06-22T02:23:24.165Z,24.14
2018-06-22T02:23:55.772Z,24.15
2018-06-22T02:24:27.362Z,24.14
2018-06-22T02:24:58.966Z,24.14
2018-06-22T02:25:30.573Z,24.13
2018-06-22T02:26:02.153Z,24.13
2018-06-22T02:26:33.757Z,24.14
2018-06-22T02:27:05.368Z,24.15
2018-06-22T02:27:37.003Z,24.14
2018-06-22T02:28:08.579Z,24.14
2018-06-22T02:28:40.161Z,24.13
2018-06-22T02:29:11.739Z,24.13
2018-06-22T02:29:43.341Z,24.13
2018-06-22T02:30:14.958Z,24.12
2018-06-22T02:30:46.617Z,24.11
2018-06-22T02:31:18.224Z,24.11
2018-06-22T02:31:49.852Z,24.11
2018-06-22T02:32:21.468Z,24.10
2018-06-22T02:32:53.054Z,24.09
2018-06-22T02:33:24.624Z,24.06
2018-06-22T02:33:56.229Z,24.07
2018-06-22T02:34:27.823Z,24.07
2018-06-22T02:34:59.429Z,24.07
2018-06-22T02:35:31.043Z,24.07
2018-06-22T02:36:02.636Z,24.08
2018-06-22T02:36:34.248Z,24.08
2018-06-22T02:37:05.843Z,24.08
2018-06-22T02:37:37.454Z,24.07
2018-06-22T02:38:09.092Z,24.08
2018-06-22T02:38:40.668Z,24.08
2018-06-22T02:39:12.240Z,24.07
2018-06-22T02:39:43.818Z,24.07
2018-06-22T02:40:15.389Z,24.08
2018-06-22T02:40:46.973Z,24.12
2018-06-22T02:41:18.565Z,24.23
2018-06-22T02:41:50.136Z,24.26
2018-06-22T02:42:21.749Z,24.06
2018-06-22T02:42:53.410Z,23.72
2018-06-22T02:43:25.030Z,23.35
2018-06-22T02:43:56.615Z,22.99
2018-06-22T02:44:28.207Z,22.76
2018-06-22T02:44:59.780Z,22.58
2018-06-22T02:45:31.395Z,22.42
2018-06-22T02:46:02.990Z,22.33
2018-06-22T02:46:34.588Z,22.21
2018-06-22T02:47:06.174Z,22.12
2018-06-22T02:47:37.758Z,22.04
2018-06-22T02:48:09.538Z,21.96
2018-06-22T02:48:41.141Z,21.90
2018-06-22T02:49:12.722Z,21.85
2018-06-22T02:49:44.329Z,21.81
2018-06-22T02:50:15.923Z,21.79
2018-06-22T02:50:47.510Z,21.78
2018-06-22T02:51:19.076Z,21.73
2018-06-22T02:51:50.658Z,21.75
2018-06-22T02:52:22.238Z,21.86
2018-06-22T02:52:53.841Z,22.04
2018-06-22T02:53:25.489Z,22.24
2018-06-22T02:53:57.095Z,22.40
2018-06-22T02:54:28.711Z,22.54
2018-06-22T02:55:00.283Z,22.66
2018-06-22T02:55:31.890Z,22.75
2018-06-22T02:56:03.489Z,22.83
2018-06-22T02:56:35.138Z,22.90
2018-06-22T02:57:06.719Z,22.99
2018-06-22T02:57:38.314Z,23.05
2018-06-22T02:58:09.938Z,23.08
2018-06-22T02:58:41.566Z,23.13
2018-06-22T02:59:13.156Z,23.15
2018-06-22T02:59:44.816Z,23.18
2018-06-22T03:00:16.374Z,23.22
2018-06-22T03:00:47.972Z,23.24
2018-06-22T03:01:19.562Z,23.26
2018-06-22T03:01:51.150Z,23.28
2018-06-22T03:02:22.756Z,23.28
2018-06-22T03:02:54.362Z,23.29
2018-06-22T03:03:25.940Z,23.30
2018-06-22T03:03:57.564Z,23.29
2018-06-22T03:04:29.149Z,23.29
2018-06-22T03:05:00.758Z,23.29
2018-06-22T03:05:32.356Z,23.29
2018-06-22T03:06:03.983Z,23.29
2018-06-22T03:06:35.562Z,23.29
2018-06-22T03:07:07.156Z,23.29
2018-06-22T03:07:38.742Z,23.29
2018-06-22T03:08:10.325Z,23.30
2018-06-22T03:08:41.940Z,23.29
2018-06-22T03:09:13.546Z,23.29
2018-06-22T03:09:45.161Z,23.29
2018-06-22T03:10:16.740Z,23.29
2018-06-22T03:10:48.317Z,23.29
2018-06-22T03:11:19.926Z,23.28
2018-06-22T03:11:51.533Z,23.30
2018-06-22T03:12:23.158Z,23.30
2018-06-22T03:12:54.762Z,23.29
2018-06-22T03:13:26.386Z,23.30
2018-06-22T03:13:57.989Z,23.30
2018-06-22T03:14:29.573Z,23.29
2018-06-22T03:15:01.148Z,23.28
2018-06-22T03:15:32.802Z,23.28
2018-06-22T03:16:04.394Z,23.28
2018-06-22T03:16:35.977Z,23.28
2018-06-22T03:17:07.565Z,23.28
2018-06-22T03:17:39.186Z,23.28
2018-06-22T03:18:10.784Z,23.28
2018-06-22T03:18:42.424Z,23.27
2018-06-22T03:19:14.024Z,23.28
2018-06-22T03:19:45.619Z,23.28
2018-06-22T03:20:17.211Z,23.27
2018-06-22T03:20:48.822Z,23.27
2018-06-22T03:21:20.426Z,23.28
2018-06-22T03:21:52.022Z,23.27
2018-06-22T03:22:23.641Z,23.27
2018-06-22T03:22:55.226Z,23.27
2018-06-22T03:23:26.807Z,23.27
2018-06-22T03:23:58.389Z,23.27
2018-06-22T03:24:29.969Z,23.27
2018-06-22T03:25:01.561Z,23.27
2018-06-22T03:25:33.160Z,23.27
2018-06-22T03:26:04.765Z,23.26
2018-06-22T03:26:36.410Z,23.26
2018-06-22T03:27:07.990Z,23.26
2018-06-22T03:27:39.559Z,23.26
2018-06-22T03:28:11.195Z,23.26
2018-06-22T03:28:42.802Z,23.25
2018-06-22T03:29:14.379Z,23.25
2018-06-22T03:29:45.981Z,23.24
2018-06-22T03:30:17.587Z,23.25
2018-06-22T03:30:49.177Z,23.24
2018-06-22T03:31:20.791Z,23.24
2018-06-22T03:31:52.464Z,23.25
2018-06-22T03:32:24.074Z,23.24
2018-06-22T03:32:55.657Z,23.24
2018-06-22T03:33:27.242Z,23.24
2018-06-22T03:33:58.831Z,23.24
2018-06-22T03:34:30.418Z,23.24
2018-06-22T03:35:02.088Z,23.24
2018-06-22T03:35:33.686Z,23.24
2018-06-22T03:36:05.304Z,23.24
2018-06-22T03:36:36.872Z,23.23
2018-06-22T03:37:08.517Z,23.23
2018-06-22T03:37:40.107Z,23.23
2018-06-22T03:38:11.680Z,23.23
2018-06-22T03:38:43.307Z,23.23
2018-06-22T03:39:14.927Z,23.23
2018-06-22T03:39:46.569Z,23.22
2018-06-22T03:40:18.416Z,23.23
2018-06-22T03:40:50.225Z,23.23
2018-06-22T03:41:22.001Z,23.22
2018-06-22T03:41:53.626Z,23.22
2018-06-22T03:42:25.214Z,23.22
2018-06-22T03:42:56.812Z,23.22
2018-06-22T03:43:28.441Z,23.22
2018-06-22T03:44:00.061Z,23.22
2018-06-22T03:44:31.653Z,23.22
2018-06-22T03:45:03.368Z,23.21
2018-06-22T03:45:34.992Z,23.20
2018-06-22T03:46:06.681Z,23.22
2018-06-22T03:46:38.314Z,23.21
2018-06-22T03:47:09.959Z,23.21
2018-06-22T03:47:41.582Z,23.21
2018-06-22T03:48:13.172Z,23.21
2018-06-22T03:48:44.768Z,23.21
2018-06-22T03:49:16.377Z,23.17
2018-06-22T03:49:47.962Z,23.20
2018-06-22T03:50:19.532Z,23.20
2018-06-22T03:50:51.138Z,23.20
2018-06-22T03:51:22.785Z,23.20
2018-06-22T03:51:54.373Z,23.19
2018-06-22T03:52:26.014Z,23.19
2018-06-22T03:52:57.617Z,23.18
2018-06-22T03:53:29.211Z,23.19
2018-06-22T03:54:00.784Z,23.18
2018-06-22T03:54:32.369Z,23.18
2018-06-22T03:55:03.953Z,23.18
2018-06-22T03:55:35.552Z,23.19
2018-06-22T03:56:07.140Z,23.19
2018-06-22T03:56:38.743Z,23.18
2018-06-22T03:57:10.325Z,23.17
2018-06-22T03:57:41.921Z,23.19
2018-06-22T03:58:13.533Z,23.18
2018-06-22T03:58:45.158Z,23.17
2018-06-22T03:59:16.790Z,23.19
2018-06-22T03:59:48.375Z,23.19
2018-06-22T04:00:19.974Z,23.19
2018-06-22T04:00:51.569Z,23.19
2018-06-22T04:01:23.182Z,23.19
2018-06-22T04:01:54.782Z,23.20
2018-06-22T04:02:26.386Z,23.21
2018-06-22T04:02:57.969Z,23.23
2018-06-22T04:03:29.577Z,23.26
2018-06-22T04:04:01.234Z,23.29
2018-06-22T04:04:32.831Z,23.30
2018-06-22T04:05:04.437Z,23.31
2018-06-22T04:05:36.062Z,23.34
2018-06-22T04:06:07.649Z,23.35
2018-06-22T04:06:39.240Z,23.37
2018-06-22T04:07:10.813Z,23.38
2018-06-22T04:07:42.410Z,23.41
2018-06-22T04:08:14.106Z,23.43
2018-06-22T04:08:45.686Z,23.44
2018-06-22T04:09:17.305Z,23.45
2018-06-22T04:09:48.908Z,23.45
2018-06-22T04:10:20.507Z,23.48
2018-06-22T04:10:52.094Z,23.48
2018-06-22T04:11:23.713Z,23.41
2018-06-22T04:11:55.305Z,23.52
2018-06-22T04:12:26.880Z,23.53
2018-06-22T04:12:58.485Z,23.54
2018-06-22T04:13:30.145Z,23.56
2018-06-22T04:14:01.746Z,23.57
2018-06-22T04:14:33.329Z,23.60
2018-06-22T04:15:04.918Z,23.62
2018-06-22T04:15:36.501Z,23.65
2018-06-22T04:16:08.121Z,23.67
2018-06-22T04:16:39.704Z,23.70
2018-06-22T04:17:11.298Z,23.74
2018-06-22T04:17:42.878Z,23.79
2018-06-22T04:18:14.477Z,23.86
2018-06-22T04:18:46.081Z,23.97
2018-06-22T04:19:17.680Z,24.09
2018-06-22T04:19:49.293Z,24.27
2018-06-22T04:20:20.913Z,24.47
2018-06-22T04:20:52.508Z,24.68
2018-06-22T04:21:24.165Z,24.91
2018-06-22T04:21:56.382Z,25.08
2018-06-22T04:22:27.981Z,25.25
2018-06-22T04:22:59.580Z,25.37
2018-06-22T04:23:31.151Z,25.47
2018-06-22T04:24:02.738Z,25.52
2018-06-22T04:24:34.329Z,25.55
2018-06-22T04:25:05.925Z,25.58
2018-06-22T04:25:37.524Z,25.48
2018-06-22T04:26:09.111Z,25.11
2018-06-22T04:26:40.748Z,24.75
2018-06-22T04:27:12.342Z,24.45
2018-06-22T04:27:43.954Z,24.22
2018-06-22T04:28:15.528Z,24.03
2018-06-22T04:28:47.133Z,23.88
2018-06-22T04:29:18.747Z,23.80
2018-06-22T04:29:50.334Z,23.98
2018-06-22T04:30:21.948Z,24.05
2018-06-22T04:30:53.541Z,23.85
2018-06-22T04:31:25.120Z,24.03
2018-06-22T04:31:56.789Z,23.93
2018-06-22T04:32:28.425Z,23.87
2018-06-22T04:33:00.000Z,24.25
2018-06-22T04:33:31.591Z,24.98
2018-06-22T04:34:03.188Z,25.45
2018-06-22T04:34:34.777Z,25.61
2018-06-22T04:35:06.377Z,25.76
2018-06-22T04:35:37.962Z,25.68
2018-06-22T04:36:09.565Z,25.34
2018-06-22T04:36:41.157Z,24.95
2018-06-22T04:37:12.786Z,24.86
2018-06-22T04:37:44.393Z,25.04
2018-06-22T04:38:16.004Z,25.41
2018-06-22T04:38:47.686Z,25.71
2018-06-22T04:39:19.206Z,25.91
2018-06-22T04:39:50.790Z,25.96
2018-06-22T04:40:22.392Z,25.99
2018-06-22T04:40:54.010Z,26.10
2018-06-22T04:41:25.622Z,26.19
2018-06-22T04:41:57.229Z,26.05
2018-06-22T04:42:28.851Z,25.93
2018-06-22T04:43:00.432Z,26.09
2018-06-22T04:43:32.004Z,26.28
2018-06-22T04:44:03.632Z,26.43
2018-06-22T04:44:35.246Z,26.57
2018-06-22T04:45:06.820Z,26.70
2018-06-22T04:45:38.415Z,26.83
2018-06-22T04:46:10.007Z,26.52
2018-06-22T04:46:41.592Z,25.95
2018-06-22T04:47:13.173Z,25.48
2018-06-22T04:47:44.801Z,25.09
2018-06-22T04:48:16.458Z,24.78
2018-06-22T04:48:48.042Z,24.49
2018-06-22T04:49:19.654Z,24.29
2018-06-22T04:49:51.272Z,24.11
2018-06-22T04:50:22.884Z,23.98
2018-06-22T04:50:54.537Z,23.90
2018-06-22T04:51:26.147Z,23.80
2018-06-22T04:51:57.737Z,23.98
2018-06-22T04:52:29.334Z,24.47
2018-06-22T04:53:00.918Z,24.39
2018-06-22T04:53:32.530Z,24.29
2018-06-22T04:54:04.142Z,24.24
2018-06-22T04:54:35.716Z,24.08
2018-06-22T04:55:07.293Z,23.94
2018-06-22T04:55:38.904Z,23.83
2018-06-22T04:56:10.533Z,23.75
2018-06-22T04:56:42.134Z,23.70
2018-06-22T04:57:13.746Z,23.67
2018-06-22T04:57:45.315Z,23.63
2018-06-22T04:58:16.892Z,23.58
2018-06-22T04:58:48.557Z,23.54
2018-06-22T04:59:20.142Z,23.49
2018-06-22T04:59:51.725Z,23.45
2018-06-22T05:00:23.378Z,23.42
2018-06-22T05:00:54.993Z,23.38
2018-06-22T05:01:26.578Z,23.36
2018-06-22T05:01:58.181Z,23.34
2018-06-22T05:02:29.760Z,23.32
2018-06-22T05:03:01.361Z,23.31
2018-06-22T05:03:33.020Z,23.31
2018-06-22T05:04:04.596Z,23.33
2018-06-22T05:04:36.168Z,23.42
2018-06-22T05:05:07.769Z,23.45
2018-06-22T05:05:39.429Z,23.44
2018-06-22T05:06:11.008Z,23.43
2018-06-22T05:06:42.608Z,23.29
2018-06-22T05:07:14.285Z,23.48
2018-06-22T05:07:45.869Z,23.48
2018-06-22T05:08:17.444Z,23.48
2018-06-22T05:08:49.016Z,23.46
2018-06-22T05:09:20.623Z,23.42
2018-06-22T05:09:52.243Z,23.39
2018-06-22T05:10:23.825Z,23.37
2018-06-22T05:10:55.445Z,23.35
2018-06-22T05:11:27.036Z,23.33
2018-06-22T05:11:58.622Z,23.31
2018-06-22T05:12:30.265Z,23.31
2018-06-22T05:13:01.874Z,23.30
2018-06-22T05:13:33.444Z,23.29
2018-06-22T05:14:05.035Z,23.28
2018-06-22T05:14:36.621Z,23.27
2018-06-22T05:15:08.190Z,23.27
2018-06-22T05:15:39.830Z,23.26
2018-06-22T05:16:11.394Z,23.25
2018-06-22T05:16:43.001Z,23.23
2018-06-22T05:17:14.649Z,23.23
2018-06-22T05:17:46.217Z,23.22
2018-06-22T05:18:17.837Z,23.22
2018-06-22T05:18:49.445Z,23.21
2018-06-22T05:19:21.029Z,23.21
2018-06-22T05:19:52.624Z,23.20
2018-06-22T05:20:24.210Z,23.20
2018-06-22T05:20:55.820Z,23.19
2018-06-22T05:21:27.432Z,23.19
2018-06-22T05:21:59.174Z,23.18
2018-06-22T05:22:30.992Z,23.18
2018-06-22T05:23:02.581Z,23.18
2018-06-22T05:23:38.662Z,23.18
2018-06-22T05:24:10.269Z,23.17
2018-06-22T05:24:41.879Z,23.16
2018-06-22T05:25:13.466Z,23.16
2018-06-22T05:25:45.038Z,23.16
2018-06-22T05:26:16.718Z,23.16
2018-06-22T05:26:48.305Z,23.15
2018-06-22T05:27:26.273Z,23.14
2018-06-22T05:27:58.116Z,23.14
2018-06-22T05:28:40.221Z,23.14
2018-06-22T05:29:12.355Z,23.14
2018-06-22T05:29:44.094Z,23.13
2018-06-22T05:30:15.760Z,23.14
2018-06-22T05:30:47.313Z,23.13
2018-06-22T05:31:18.968Z,23.13
2018-06-22T05:31:50.551Z,23.14
2018-06-22T05:32:22.684Z,23.13
2018-06-22T05:32:54.309Z,23.13
2018-06-22T05:33:25.881Z,23.14
2018-06-22T05:33:57.469Z,23.13
2018-06-22T05:34:29.078Z,23.12
2018-06-22T05:35:00.999Z,23.12
2018-06-22T05:35:34.172Z,23.12
2018-06-22T05:36:06.419Z,23.11
2018-06-22T05:36:38.475Z,23.12
2018-06-22T05:37:10.545Z,23.11
2018-06-22T05:37:43.720Z,23.11
2018-06-22T05:38:15.345Z,23.12
2018-06-22T05:38:47.018Z,23.11
2018-06-22T05:39:18.610Z,23.11
2018-06-22T05:39:50.223Z,23.10
2018-06-22T05:40:23.141Z,23.10
2018-06-22T05:40:55.494Z,23.10
2018-06-22T05:41:27.730Z,23.10
2018-06-22T05:42:00.563Z,23.10
2018-06-22T05:42:32.195Z,23.11
2018-06-22T05:43:05.039Z,23.11
2018-06-22T05:43:37.682Z,23.10
2018-06-22T05:44:09.283Z,23.10
2018-06-22T05:44:42.173Z,23.10
2018-06-22T05:45:13.967Z,23.10
2018-06-22T05:45:45.566Z,23.10
2018-06-22T05:46:17.643Z,23.10
2018-06-22T05:46:49.285Z,23.09
2018-06-22T05:47:20.898Z,23.10
2018-06-22T05:47:52.482Z,23.09
2018-06-22T05:48:24.068Z,23.09
2018-06-22T05:48:55.728Z,23.09
2018-06-22T05:49:27.587Z,23.08
2018-06-22T05:49:59.206Z,23.08
2018-06-22T05:50:33.250Z,23.08
2018-06-22T05:51:05.205Z,23.08
2018-06-22T05:51:37.240Z,23.07
2018-06-22T05:52:09.049Z,23.06
2018-06-22T05:52:40.703Z,23.07
2018-06-22T05:53:12.324Z,23.08
2018-06-22T05:53:43.929Z,23.07
2018-06-22T05:54:15.870Z,23.07
2018-06-22T05:54:49.248Z,23.07
2018-06-22T05:55:31.104Z,23.06
2018-06-22T05:56:02.687Z,23.06
2018-06-22T05:56:35.022Z,23.07
2018-06-22T05:57:06.654Z,23.07
2018-06-22T05:57:38.440Z,23.06
2018-06-22T05:58:10.024Z,23.07
2018-06-22T05:58:41.650Z,23.08
2018-06-22T05:59:13.293Z,23.08
2018-06-22T05:59:44.902Z,23.00
2018-06-22T06:00:16.504Z,23.08
2018-06-22T06:00:48.114Z,23.08
2018-06-22T06:01:19.692Z,23.08
2018-06-22T06:01:51.502Z,23.08
2018-06-22T06:02:23.096Z,23.07
2018-06-22T06:02:54.672Z,23.07
2018-06-22T06:03:26.298Z,23.08
2018-06-22T06:03:57.871Z,23.07
2018-06-22T06:04:37.594Z,23.07
2018-06-22T06:05:09.789Z,23.07
2018-06-22T06:05:41.365Z,22.91
2018-06-22T06:06:12.956Z,23.06
2018-06-22T06:06:44.542Z,23.06
2018-06-22T06:07:16.176Z,23.05
2018-06-22T06:07:47.767Z,23.05
2018-06-22T06:08:19.377Z,23.05
2018-06-22T06:08:50.986Z,23.05
2018-06-22T06:09:23.841Z,23.04
2018-06-22T06:09:55.653Z,23.05
2018-06-22T06:10:27.246Z,23.04
2018-06-22T06:10:58.880Z,23.04
2018-06-22T06:11:30.466Z,23.05
2018-06-22T06:12:02.096Z,23.04
2018-06-22T06:12:35.488Z,23.03
2018-06-22T06:13:07.058Z,23.03
2018-06-22T06:13:38.646Z,23.03
2018-06-22T06:14:10.294Z,23.03
2018-06-22T06:14:41.865Z,23.03
2018-06-22T06:15:13.446Z,23.03
2018-06-22T06:15:45.034Z,23.02
2018-06-22T06:16:16.628Z,23.03
2018-06-22T06:16:48.208Z,23.02
2018-06-22T06:17:19.857Z,23.02
2018-06-22T06:17:51.441Z,23.02
2018-06-22T06:18:23.041Z,23.01
2018-06-22T06:18:54.613Z,23.01
2018-06-22T06:19:26.184Z,23.01
2018-06-22T06:19:57.768Z,23.01
2018-06-22T06:20:29.369Z,23.01
2018-06-22T06:21:00.968Z,23.01
2018-06-22T06:21:32.585Z,23.01
2018-06-22T06:22:04.189Z,23.01
2018-06-22T06:22:35.817Z,23.01
2018-06-22T06:23:07.408Z,23.01
2018-06-22T06:23:39.013Z,23.01
2018-06-22T06:24:11.490Z,23.01
2018-06-22T06:24:46.637Z,23.01
2018-06-22T06:25:23.596Z,23.00
2018-06-22T06:26:07.832Z,22.99
2018-06-22T06:26:57.193Z,23.00
2018-06-22T06:27:28.804Z,22.99
2018-06-22T06:28:00.376Z,22.99
2018-06-22T06:28:31.943Z,22.99
2018-06-22T06:29:03.594Z,22.98
2018-06-22T06:29:35.181Z,22.98
2018-06-22T06:30:06.796Z,22.97
2018-06-22T06:30:38.376Z,22.97
2018-06-22T06:31:09.983Z,22.97
2018-06-22T06:31:41.573Z,22.95
2018-06-22T06:32:13.164Z,22.96
2018-06-22T06:32:44.736Z,22.96
2018-06-22T06:33:16.312Z,22.96
2018-06-22T06:33:47.916Z,22.95
2018-06-22T06:34:19.585Z,22.95
2018-06-22T06:34:51.197Z,22.94
2018-06-22T06:35:22.782Z,22.95
2018-06-22T06:35:54.375Z,22.95
2018-06-22T06:36:25.987Z,22.94
2018-06-22T06:36:57.597Z,22.94
2018-06-22T06:37:29.201Z,22.93
2018-06-22T06:38:00.789Z,22.94
2018-06-22T06:38:32.356Z,22.85
2018-06-22T06:39:03.960Z,22.93
2018-06-22T06:39:35.573Z,22.93
2018-06-22T06:40:07.221Z,22.93
2018-06-22T06:40:38.849Z,22.93
2018-06-22T06:41:10.429Z,22.93
2018-06-22T06:41:42.024Z,22.92
2018-06-22T06:42:13.623Z,22.93
2018-06-22T06:42:45.210Z,22.82
2018-06-22T06:43:16.933Z,22.92
2018-06-22T06:43:48.535Z,22.92
2018-06-22T06:44:20.108Z,22.92
2018-06-22T06:44:51.724Z,22.83
2018-06-22T06:45:23.302Z,22.92
2018-06-22T06:45:54.904Z,22.92
2018-06-22T06:46:26.549Z,22.92
2018-06-22T06:46:58.130Z,22.92
2018-06-22T06:47:29.709Z,22.92
2018-06-22T06:48:01.313Z,22.92
2018-06-22T06:48:32.962Z,22.92